sensor_id;sensor_type;location;lat;lon;timestamp;P1;durP1;ratioP1;P2;durP2;ratioP2
15633;SDS011;14654;48.898;8.308;2023-12-20T00:01:26;2.87;;;2.67;;
15633;SDS011;14654;48.898;8.308;2023-12-20T00:03:51;3.17;;;2.87;;
15633;SDS011;14654;48.898;8.308;2023-12-20T00:06:16;4.23;;;3.70;;
15633;SDS011;14654;48.898;8.308;2023-12-20T00:08:42;3.40;;;3.10;;
15633;SDS011;14654;48.898;8.308;2023-12-20T00:11:07;3.17;;;2.87;;
15633;SDS011;14654;48.898;8.308;2023-12-20T00:13:32;3.53;;;3.23;;
15633;SDS011;14654;48.898;8.308;2023-12-20T00:15:58;3.47;;;3.17;;
15633;SDS011;14654;48.898;8.308;2023-12-20T00:18:23;3.30;;;3.00;;
15633;SDS011;14654;48.898;8.308;2023-12-20T00:20:48;3.43;;;3.13;;
15633;SDS011;14654;48.898;8.308;2023-12-20T00:23:14;3.50;;;3.17;;
15633;SDS011;14654;48.898;8.308;2023-12-20T00:25:39;3.63;;;3.33;;
15633;SDS011;14654;48.898;8.308;2023-12-20T00:28:04;3.47;;;3.17;;
15633;SDS011;14654;48.898;8.308;2023-12-20T00:30:30;3.63;;;3.27;;
15633;SDS011;14654;48.898;8.308;2023-12-20T00:32:55;3.50;;;3.20;;
15633;SDS011;14654;48.898;8.308;2023-12-20T00:35:21;3.73;;;3.43;;
15633;SDS011;14654;48.898;8.308;2023-12-20T00:37:46;4.00;;;3.60;;
15633;SDS011;14654;48.898;8.308;2023-12-20T00:40:11;3.40;;;3.10;;
15633;SDS011;14654;48.898;8.308;2023-12-20T00:42:37;3.10;;;2.90;;
15633;SDS011;14654;48.898;8.308;2023-12-20T00:45:02;3.50;;;3.20;;
15633;SDS011;14654;48.898;8.308;2023-12-20T00:47:30;3.47;;;3.13;;
15633;SDS011;14654;48.898;8.308;2023-12-20T00:49:55;3.20;;;2.90;;
15633;SDS011;14654;48.898;8.308;2023-12-20T00:52:21;3.10;;;2.80;;
15633;SDS011;14654;48.898;8.308;2023-12-20T00:54:47;3.63;;;3.20;;
15633;SDS011;14654;48.898;8.308;2023-12-20T00:57:13;3.40;;;3.10;;
15633;SDS011;14654;48.898;8.308;2023-12-20T00:59:38;3.17;;;2.87;;
15633;SDS011;14654;48.898;8.308;2023-12-20T01:02:03;2.90;;;2.60;;
15633;SDS011;14654;48.898;8.308;2023-12-20T01:04:29;3.80;;;3.13;;
15633;SDS011;14654;48.898;8.308;2023-12-20T01:06:57;3.27;;;2.97;;
15633;SDS011;14654;48.898;8.308;2023-12-20T01:09:22;3.43;;;3.13;;
15633;SDS011;14654;48.898;8.308;2023-12-20T01:11:51;2.80;;;2.60;;
15633;SDS011;14654;48.898;8.308;2023-12-20T01:14:17;3.60;;;3.30;;
15633;SDS011;14654;48.898;8.308;2023-12-20T01:16:42;3.13;;;2.83;;
15633;SDS011;14654;48.898;8.308;2023-12-20T01:19:08;3.27;;;2.93;;
15633;SDS011;14654;48.898;8.308;2023-12-20T01:21:33;3.47;;;3.17;;
15633;SDS011;14654;48.898;8.308;2023-12-20T01:23:58;3.47;;;2.97;;
15633;SDS011;14654;48.898;8.308;2023-12-20T01:26:23;2.93;;;2.73;;
15633;SDS011;14654;48.898;8.308;2023-12-20T01:28:49;3.23;;;2.93;;
15633;SDS011;14654;48.898;8.308;2023-12-20T01:31:14;3.47;;;3.17;;
15633;SDS011;14654;48.898;8.308;2023-12-20T01:33:39;3.27;;;2.97;;
15633;SDS011;14654;48.898;8.308;2023-12-20T01:36:05;3.43;;;3.00;;
15633;SDS011;14654;48.898;8.308;2023-12-20T01:38:30;2.90;;;2.70;;
15633;SDS011;14654;48.898;8.308;2023-12-20T01:40:55;2.93;;;2.63;;
15633;SDS011;14654;48.898;8.308;2023-12-20T01:43:21;3.40;;;3.10;;
15633;SDS011;14654;48.898;8.308;2023-12-20T01:45:46;2.57;;;2.37;;
15633;SDS011;14654;48.898;8.308;2023-12-20T01:48:12;2.83;;;2.57;;
15633;SDS011;14654;48.898;8.308;2023-12-20T01:50:41;2.67;;;2.47;;
15633;SDS011;14654;48.898;8.308;2023-12-20T01:53:08;3.27;;;2.63;;
15633;SDS011;14654;48.898;8.308;2023-12-20T01:55:36;2.77;;;2.47;;
15633;SDS011;14654;48.898;8.308;2023-12-20T01:58:04;3.43;;;3.07;;
15633;SDS011;14654;48.898;8.308;2023-12-20T02:00:30;3.10;;;2.70;;
15633;SDS011;14654;48.898;8.308;2023-12-20T02:02:56;3.40;;;3.10;;
15633;SDS011;14654;48.898;8.308;2023-12-20T02:05:25;3.43;;;2.67;;
15633;SDS011;14654;48.898;8.308;2023-12-20T02:07:52;2.67;;;2.47;;
15633;SDS011;14654;48.898;8.308;2023-12-20T02:10:18;2.60;;;2.40;;
15633;SDS011;14654;48.898;8.308;2023-12-20T02:12:43;3.13;;;2.87;;
15633;SDS011;14654;48.898;8.308;2023-12-20T02:15:08;3.23;;;2.87;;
15633;SDS011;14654;48.898;8.308;2023-12-20T02:17:36;3.23;;;2.93;;
15633;SDS011;14654;48.898;8.308;2023-12-20T02:20:03;2.63;;;2.40;;
15633;SDS011;14654;48.898;8.308;2023-12-20T02:22:29;3.03;;;2.73;;
15633;SDS011;14654;48.898;8.308;2023-12-20T02:24:54;3.17;;;2.97;;
15633;SDS011;14654;48.898;8.308;2023-12-20T02:27:20;2.70;;;2.50;;
15633;SDS011;14654;48.898;8.308;2023-12-20T02:29:47;2.87;;;2.50;;
15633;SDS011;14654;48.898;8.308;2023-12-20T02:32:13;2.90;;;2.50;;
15633;SDS011;14654;48.898;8.308;2023-12-20T02:34:39;2.70;;;2.50;;
15633;SDS011;14654;48.898;8.308;2023-12-20T02:37:04;2.60;;;2.40;;
15633;SDS011;14654;48.898;8.308;2023-12-20T02:39:29;3.27;;;2.60;;
15633;SDS011;14654;48.898;8.308;2023-12-20T02:41:55;2.90;;;2.70;;
15633;SDS011;14654;48.898;8.308;2023-12-20T02:44:20;2.83;;;2.63;;
15633;SDS011;14654;48.898;8.308;2023-12-20T02:46:45;2.90;;;2.60;;
15633;SDS011;14654;48.898;8.308;2023-12-20T02:49:11;3.43;;;3.03;;
15633;SDS011;14654;48.898;8.308;2023-12-20T02:51:36;4.03;;;2.90;;
15633;SDS011;14654;48.898;8.308;2023-12-20T02:54:03;3.20;;;2.47;;
15633;SDS011;14654;48.898;8.308;2023-12-20T02:56:29;3.20;;;2.90;;
15633;SDS011;14654;48.898;8.308;2023-12-20T02:58:54;3.13;;;2.53;;
15633;SDS011;14654;48.898;8.308;2023-12-20T03:01:20;2.57;;;2.37;;
15633;SDS011;14654;48.898;8.308;2023-12-20T03:03:45;2.70;;;2.50;;
15633;SDS011;14654;48.898;8.308;2023-12-20T03:06:10;2.87;;;2.53;;
15633;SDS011;14654;48.898;8.308;2023-12-20T03:08:36;2.80;;;2.50;;
15633;SDS011;14654;48.898;8.308;2023-12-20T03:11:02;3.33;;;3.00;;
15633;SDS011;14654;48.898;8.308;2023-12-20T03:13:27;2.93;;;2.73;;
15633;SDS011;14654;48.898;8.308;2023-12-20T03:15:52;3.10;;;2.77;;
15633;SDS011;14654;48.898;8.308;2023-12-20T03:18:18;3.27;;;2.97;;
15633;SDS011;14654;48.898;8.308;2023-12-20T03:20:43;2.77;;;2.57;;
15633;SDS011;14654;48.898;8.308;2023-12-20T03:23:08;3.23;;;2.93;;
15633;SDS011;14654;48.898;8.308;2023-12-20T03:25:34;3.13;;;2.90;;
15633;SDS011;14654;48.898;8.308;2023-12-20T03:27:59;3.00;;;2.80;;
15633;SDS011;14654;48.898;8.308;2023-12-20T03:30:25;4.37;;;3.53;;
15633;SDS011;14654;48.898;8.308;2023-12-20T03:32:50;3.10;;;2.90;;
15633;SDS011;14654;48.898;8.308;2023-12-20T03:35:15;2.93;;;2.73;;
15633;SDS011;14654;48.898;8.308;2023-12-20T03:37:41;2.80;;;2.60;;
15633;SDS011;14654;48.898;8.308;2023-12-20T03:40:06;2.87;;;2.67;;
15633;SDS011;14654;48.898;8.308;2023-12-20T03:42:32;2.40;;;2.30;;
15633;SDS011;14654;48.898;8.308;2023-12-20T03:44:57;2.47;;;2.27;;
15633;SDS011;14654;48.898;8.308;2023-12-20T03:47:22;2.87;;;2.67;;
15633;SDS011;14654;48.898;8.308;2023-12-20T03:49:48;2.60;;;2.40;;
15633;SDS011;14654;48.898;8.308;2023-12-20T03:52:13;2.50;;;2.30;;
15633;SDS011;14654;48.898;8.308;2023-12-20T03:54:38;2.50;;;2.30;;
15633;SDS011;14654;48.898;8.308;2023-12-20T03:57:07;2.53;;;2.33;;
15633;SDS011;14654;48.898;8.308;2023-12-20T03:59:36;2.93;;;2.73;;
15633;SDS011;14654;48.898;8.308;2023-12-20T04:02:02;3.17;;;2.30;;
15633;SDS011;14654;48.898;8.308;2023-12-20T04:04:27;2.53;;;2.33;;
15633;SDS011;14654;48.898;8.308;2023-12-20T04:06:53;2.60;;;2.40;;
15633;SDS011;14654;48.898;8.308;2023-12-20T04:09:18;2.60;;;2.40;;
15633;SDS011;14654;48.898;8.308;2023-12-20T04:11:43;2.90;;;2.10;;
15633;SDS011;14654;48.898;8.308;2023-12-20T04:14:09;2.47;;;2.27;;
15633;SDS011;14654;48.898;8.308;2023-12-20T04:16:35;2.47;;;2.27;;
15633;SDS011;14654;48.898;8.308;2023-12-20T04:19:00;2.33;;;1.90;;
15633;SDS011;14654;48.898;8.308;2023-12-20T04:21:26;2.83;;;2.30;;
15633;SDS011;14654;48.898;8.308;2023-12-20T04:23:51;2.30;;;2.10;;
15633;SDS011;14654;48.898;8.308;2023-12-20T04:26:16;2.43;;;2.10;;
15633;SDS011;14654;48.898;8.308;2023-12-20T04:28:41;2.30;;;2.10;;
15633;SDS011;14654;48.898;8.308;2023-12-20T04:31:07;2.80;;;2.40;;
15633;SDS011;14654;48.898;8.308;2023-12-20T04:33:32;2.47;;;2.17;;
15633;SDS011;14654;48.898;8.308;2023-12-20T04:35:58;2.47;;;2.27;;
15633;SDS011;14654;48.898;8.308;2023-12-20T04:38:23;2.50;;;2.30;;
15633;SDS011;14654;48.898;8.308;2023-12-20T04:40:49;2.93;;;2.67;;
15633;SDS011;14654;48.898;8.308;2023-12-20T04:43:14;2.93;;;2.53;;
15633;SDS011;14654;48.898;8.308;2023-12-20T04:45:39;3.00;;;2.70;;
15633;SDS011;14654;48.898;8.308;2023-12-20T04:48:05;3.27;;;2.97;;
15633;SDS011;14654;48.898;8.308;2023-12-20T04:50:31;2.57;;;2.37;;
15633;SDS011;14654;48.898;8.308;2023-12-20T04:52:56;3.10;;;2.80;;
15633;SDS011;14654;48.898;8.308;2023-12-20T04:55:21;2.77;;;2.57;;
15633;SDS011;14654;48.898;8.308;2023-12-20T04:57:47;3.67;;;3.37;;
15633;SDS011;14654;48.898;8.308;2023-12-20T05:00:15;3.17;;;2.87;;
15633;SDS011;14654;48.898;8.308;2023-12-20T05:02:41;3.17;;;2.87;;
15633;SDS011;14654;48.898;8.308;2023-12-20T05:05:06;3.10;;;2.50;;
15633;SDS011;14654;48.898;8.308;2023-12-20T05:07:32;2.97;;;2.77;;
15633;SDS011;14654;48.898;8.308;2023-12-20T05:09:58;3.40;;;2.90;;
15633;SDS011;14654;48.898;8.308;2023-12-20T05:12:23;2.97;;;2.77;;
15633;SDS011;14654;48.898;8.308;2023-12-20T05:14:49;3.10;;;2.90;;
15633;SDS011;14654;48.898;8.308;2023-12-20T05:17:14;2.57;;;2.37;;
15633;SDS011;14654;48.898;8.308;2023-12-20T05:19:40;3.23;;;2.93;;
15633;SDS011;14654;48.898;8.308;2023-12-20T05:22:05;2.87;;;2.67;;
15633;SDS011;14654;48.898;8.308;2023-12-20T05:24:30;2.47;;;2.27;;
15633;SDS011;14654;48.898;8.308;2023-12-20T05:26:56;2.97;;;2.73;;
15633;SDS011;14654;48.898;8.308;2023-12-20T05:29:21;2.90;;;2.70;;
15633;SDS011;14654;48.898;8.308;2023-12-20T05:31:46;3.87;;;3.00;;
15633;SDS011;14654;48.898;8.308;2023-12-20T05:34:12;3.73;;;2.80;;
15633;SDS011;14654;48.898;8.308;2023-12-20T05:36:37;3.37;;;3.07;;
15633;SDS011;14654;48.898;8.308;2023-12-20T05:39:03;3.43;;;3.17;;
15633;SDS011;14654;48.898;8.308;2023-12-20T05:41:30;3.13;;;2.93;;
15633;SDS011;14654;48.898;8.308;2023-12-20T05:43:56;3.63;;;3.27;;
15633;SDS011;14654;48.898;8.308;2023-12-20T05:46:23;3.63;;;3.33;;
15633;SDS011;14654;48.898;8.308;2023-12-20T05:48:48;3.20;;;3.00;;
15633;SDS011;14654;48.898;8.308;2023-12-20T05:51:14;3.30;;;3.10;;
15633;SDS011;14654;48.898;8.308;2023-12-20T05:53:39;4.27;;;3.27;;
15633;SDS011;14654;48.898;8.308;2023-12-20T05:56:04;3.63;;;3.33;;
15633;SDS011;14654;48.898;8.308;2023-12-20T05:58:30;3.53;;;3.23;;
15633;SDS011;14654;48.898;8.308;2023-12-20T06:00:57;3.70;;;3.40;;
15633;SDS011;14654;48.898;8.308;2023-12-20T06:03:22;3.60;;;3.30;;
15633;SDS011;14654;48.898;8.308;2023-12-20T06:05:48;3.97;;;3.57;;
15633;SDS011;14654;48.898;8.308;2023-12-20T06:08:13;4.57;;;3.80;;
15633;SDS011;14654;48.898;8.308;2023-12-20T06:10:39;4.00;;;3.57;;
15633;SDS011;14654;48.898;8.308;2023-12-20T06:13:05;4.00;;;3.70;;
15633;SDS011;14654;48.898;8.308;2023-12-20T06:15:31;3.80;;;3.50;;
15633;SDS011;14654;48.898;8.308;2023-12-20T06:17:57;3.43;;;3.23;;
15633;SDS011;14654;48.898;8.308;2023-12-20T06:20:22;3.20;;;2.90;;
15633;SDS011;14654;48.898;8.308;2023-12-20T06:22:48;3.60;;;3.30;;
15633;SDS011;14654;48.898;8.308;2023-12-20T06:25:13;3.50;;;3.20;;
15633;SDS011;14654;48.898;8.308;2023-12-20T06:27:38;2.87;;;2.67;;
15633;SDS011;14654;48.898;8.308;2023-12-20T06:30:04;3.37;;;3.07;;
15633;SDS011;14654;48.898;8.308;2023-12-20T06:32:30;3.10;;;2.90;;
15633;SDS011;14654;48.898;8.308;2023-12-20T06:34:55;4.03;;;3.53;;
15633;SDS011;14654;48.898;8.308;2023-12-20T06:37:21;3.10;;;2.90;;
15633;SDS011;14654;48.898;8.308;2023-12-20T06:39:46;4.23;;;3.37;;
15633;SDS011;14654;48.898;8.308;2023-12-20T06:42:12;3.50;;;3.20;;
15633;SDS011;14654;48.898;8.308;2023-12-20T06:44:38;3.83;;;3.53;;
15633;SDS011;14654;48.898;8.308;2023-12-20T06:47:04;3.20;;;3.00;;
15633;SDS011;14654;48.898;8.308;2023-12-20T06:49:29;3.93;;;3.63;;
15633;SDS011;14654;48.898;8.308;2023-12-20T06:51:54;3.67;;;3.37;;
15633;SDS011;14654;48.898;8.308;2023-12-20T06:54:20;3.20;;;3.00;;
15633;SDS011;14654;48.898;8.308;2023-12-20T06:56:45;3.47;;;3.17;;
15633;SDS011;14654;48.898;8.308;2023-12-20T06:59:10;3.37;;;3.10;;
15633;SDS011;14654;48.898;8.308;2023-12-20T07:01:36;3.77;;;3.47;;
15633;SDS011;14654;48.898;8.308;2023-12-20T07:04:01;3.70;;;3.30;;
15633;SDS011;14654;48.898;8.308;2023-12-20T07:06:26;3.80;;;3.50;;
15633;SDS011;14654;48.898;8.308;2023-12-20T07:08:52;3.60;;;3.30;;
15633;SDS011;14654;48.898;8.308;2023-12-20T07:11:17;3.47;;;3.17;;
15633;SDS011;14654;48.898;8.308;2023-12-20T07:13:43;3.73;;;3.33;;
15633;SDS011;14654;48.898;8.308;2023-12-20T07:16:08;3.60;;;3.30;;
15633;SDS011;14654;48.898;8.308;2023-12-20T07:18:33;3.80;;;3.37;;
15633;SDS011;14654;48.898;8.308;2023-12-20T07:20:59;3.60;;;3.30;;
15633;SDS011;14654;48.898;8.308;2023-12-20T07:23:24;2.90;;;2.70;;
15633;SDS011;14654;48.898;8.308;2023-12-20T07:25:50;4.40;;;4.00;;
15633;SDS011;14654;48.898;8.308;2023-12-20T07:28:16;4.50;;;4.10;;
15633;SDS011;14654;48.898;8.308;2023-12-20T07:30:41;4.07;;;3.67;;
15633;SDS011;14654;48.898;8.308;2023-12-20T07:33:06;3.93;;;3.57;;
15633;SDS011;14654;48.898;8.308;2023-12-20T07:35:33;4.37;;;3.97;;
15633;SDS011;14654;48.898;8.308;2023-12-20T07:37:59;3.87;;;3.57;;
15633;SDS011;14654;48.898;8.308;2023-12-20T07:40:24;3.80;;;3.50;;
15633;SDS011;14654;48.898;8.308;2023-12-20T07:42:50;4.03;;;3.73;;
15633;SDS011;14654;48.898;8.308;2023-12-20T07:45:15;3.73;;;3.43;;
15633;SDS011;14654;48.898;8.308;2023-12-20T07:47:40;3.97;;;3.67;;
15633;SDS011;14654;48.898;8.308;2023-12-20T07:50:06;4.00;;;3.70;;
15633;SDS011;14654;48.898;8.308;2023-12-20T07:52:31;4.80;;;4.40;;
15633;SDS011;14654;48.898;8.308;2023-12-20T07:54:57;4.67;;;4.27;;
15633;SDS011;14654;48.898;8.308;2023-12-20T07:57:23;4.00;;;3.70;;
15633;SDS011;14654;48.898;8.308;2023-12-20T07:59:48;4.23;;;3.83;;
15633;SDS011;14654;48.898;8.308;2023-12-20T08:02:13;4.23;;;3.83;;
15633;SDS011;14654;48.898;8.308;2023-12-20T08:04:39;5.03;;;4.57;;
15633;SDS011;14654;48.898;8.308;2023-12-20T08:07:04;3.90;;;3.60;;
15633;SDS011;14654;48.898;8.308;2023-12-20T08:09:29;4.63;;;4.23;;
15633;SDS011;14654;48.898;8.308;2023-12-20T08:11:55;4.50;;;4.10;;
15633;SDS011;14654;48.898;8.308;2023-12-20T08:14:20;4.70;;;4.30;;
15633;SDS011;14654;48.898;8.308;2023-12-20T08:16:46;5.90;;;4.27;;
15633;SDS011;14654;48.898;8.308;2023-12-20T08:19:11;5.13;;;4.60;;
15633;SDS011;14654;48.898;8.308;2023-12-20T08:21:37;4.70;;;4.30;;
15633;SDS011;14654;48.898;8.308;2023-12-20T08:24:02;5.87;;;5.20;;
15633;SDS011;14654;48.898;8.308;2023-12-20T08:26:28;6.63;;;4.50;;
15633;SDS011;14654;48.898;8.308;2023-12-20T08:28:53;5.23;;;4.53;;
15633;SDS011;14654;48.898;8.308;2023-12-20T08:31:19;4.87;;;4.20;;
15633;SDS011;14654;48.898;8.308;2023-12-20T08:33:44;5.27;;;4.77;;
15633;SDS011;14654;48.898;8.308;2023-12-20T08:36:11;5.43;;;4.10;;
15633;SDS011;14654;48.898;8.308;2023-12-20T08:38:36;5.40;;;4.17;;
15633;SDS011;14654;48.898;8.308;2023-12-20T08:41:02;4.33;;;4.00;;
15633;SDS011;14654;48.898;8.308;2023-12-20T08:43:30;4.83;;;4.43;;
15633;SDS011;14654;48.898;8.308;2023-12-20T08:45:55;4.83;;;4.33;;
15633;SDS011;14654;48.898;8.308;2023-12-20T08:48:20;5.03;;;4.50;;
15633;SDS011;14654;48.898;8.308;2023-12-20T08:50:46;4.57;;;4.20;;
15633;SDS011;14654;48.898;8.308;2023-12-20T08:53:13;4.47;;;4.07;;
15633;SDS011;14654;48.898;8.308;2023-12-20T08:55:40;5.53;;;4.57;;
15633;SDS011;14654;48.898;8.308;2023-12-20T08:58:06;4.43;;;4.03;;
15633;SDS011;14654;48.898;8.308;2023-12-20T09:00:33;3.80;;;3.47;;
15633;SDS011;14654;48.898;8.308;2023-12-20T09:02:58;3.73;;;3.20;;
15633;SDS011;14654;48.898;8.308;2023-12-20T09:05:24;4.57;;;3.20;;
15633;SDS011;14654;48.898;8.308;2023-12-20T09:07:49;4.03;;;2.90;;
15633;SDS011;14654;48.898;8.308;2023-12-20T09:10:15;4.10;;;2.93;;
15633;SDS011;14654;48.898;8.308;2023-12-20T09:12:40;3.17;;;2.87;;
15633;SDS011;14654;48.898;8.308;2023-12-20T09:15:07;3.57;;;2.40;;
15633;SDS011;14654;48.898;8.308;2023-12-20T09:17:33;3.53;;;2.70;;
15633;SDS011;14654;48.898;8.308;2023-12-20T09:19:58;3.83;;;3.00;;
15633;SDS011;14654;48.898;8.308;2023-12-20T09:22:25;5.67;;;3.00;;
15633;SDS011;14654;48.898;8.308;2023-12-20T09:24:50;3.60;;;2.33;;
15633;SDS011;14654;48.898;8.308;2023-12-20T09:27:15;2.77;;;2.40;;
15633;SDS011;14654;48.898;8.308;2023-12-20T09:29:41;4.67;;;2.63;;
15633;SDS011;14654;48.898;8.308;2023-12-20T09:32:06;3.40;;;2.00;;
15633;SDS011;14654;48.898;8.308;2023-12-20T09:34:31;5.47;;;2.60;;
15633;SDS011;14654;48.898;8.308;2023-12-20T09:36:57;4.73;;;2.00;;
15633;SDS011;14654;48.898;8.308;2023-12-20T09:39:22;3.40;;;2.17;;
15633;SDS011;14654;48.898;8.308;2023-12-20T09:42:01;3.00;;;2.40;;
15633;SDS011;14654;48.898;8.308;2023-12-20T09:44:30;2.87;;;2.07;;
15633;SDS011;14654;48.898;8.308;2023-12-20T09:46:56;5.20;;;2.47;;
15633;SDS011;14654;48.898;8.308;2023-12-20T09:49:22;2.80;;;2.40;;
15633;SDS011;14654;48.898;8.308;2023-12-20T09:51:48;4.83;;;2.50;;
15633;SDS011;14654;48.898;8.308;2023-12-20T09:54:19;4.20;;;2.30;;
15633;SDS011;14654;48.898;8.308;2023-12-20T09:56:45;3.90;;;2.60;;
15633;SDS011;14654;48.898;8.308;2023-12-20T09:59:11;5.13;;;2.30;;
15633;SDS011;14654;48.898;8.308;2023-12-20T10:01:37;3.13;;;2.30;;
15633;SDS011;14654;48.898;8.308;2023-12-20T10:04:05;3.23;;;2.40;;
15633;SDS011;14654;48.898;8.308;2023-12-20T10:06:43;4.67;;;2.63;;
15633;SDS011;14654;48.898;8.308;2023-12-20T10:09:09;3.10;;;2.20;;
15633;SDS011;14654;48.898;8.308;2023-12-20T10:11:36;3.10;;;2.60;;
15633;SDS011;14654;48.898;8.308;2023-12-20T10:14:03;3.97;;;2.40;;
15633;SDS011;14654;48.898;8.308;2023-12-20T10:16:29;4.80;;;2.90;;
15633;SDS011;14654;48.898;8.308;2023-12-20T10:18:55;4.03;;;2.37;;
15633;SDS011;14654;48.898;8.308;2023-12-20T10:21:21;4.10;;;2.60;;
15633;SDS011;14654;48.898;8.308;2023-12-20T10:23:48;3.73;;;2.47;;
15633;SDS011;14654;48.898;8.308;2023-12-20T10:26:24;2.93;;;2.40;;
15633;SDS011;14654;48.898;8.308;2023-12-20T10:28:51;5.03;;;2.47;;
15633;SDS011;14654;48.898;8.308;2023-12-20T10:33:53;3.43;;;2.30;;
15633;SDS011;14654;48.898;8.308;2023-12-20T10:36:18;3.83;;;2.67;;
15633;SDS011;14654;48.898;8.308;2023-12-20T10:38:43;4.13;;;2.70;;
15633;SDS011;14654;48.898;8.308;2023-12-20T10:41:09;3.97;;;2.23;;
15633;SDS011;14654;48.898;8.308;2023-12-20T10:43:36;4.40;;;2.30;;
15633;SDS011;14654;48.898;8.308;2023-12-20T10:46:03;5.30;;;2.70;;
15633;SDS011;14654;48.898;8.308;2023-12-20T10:48:28;3.20;;;2.23;;
15633;SDS011;14654;48.898;8.308;2023-12-20T10:50:56;4.50;;;2.10;;
15633;SDS011;14654;48.898;8.308;2023-12-20T10:53:23;5.93;;;3.20;;
15633;SDS011;14654;48.898;8.308;2023-12-20T10:55:49;4.13;;;2.53;;
15633;SDS011;14654;48.898;8.308;2023-12-20T10:58:20;3.97;;;2.40;;
15633;SDS011;14654;48.898;8.308;2023-12-20T11:00:47;3.40;;;2.07;;
15633;SDS011;14654;48.898;8.308;2023-12-20T11:03:18;3.80;;;2.50;;
15633;SDS011;14654;48.898;8.308;2023-12-20T11:05:54;5.87;;;2.63;;
15633;SDS011;14654;48.898;8.308;2023-12-20T11:08:32;3.80;;;2.43;;
15633;SDS011;14654;48.898;8.308;2023-12-20T11:13:34;5.30;;;2.50;;
15633;SDS011;14654;48.898;8.308;2023-12-20T11:16:04;4.27;;;2.20;;
15633;SDS011;14654;48.898;8.308;2023-12-20T11:18:30;3.73;;;2.40;;
15633;SDS011;14654;48.898;8.308;2023-12-20T11:21:00;4.20;;;2.07;;
15633;SDS011;14654;48.898;8.308;2023-12-20T11:23:26;4.00;;;2.30;;
15633;SDS011;14654;48.898;8.308;2023-12-20T11:25:52;5.83;;;2.43;;
15633;SDS011;14654;48.898;8.308;2023-12-20T11:28:25;3.10;;;1.93;;
15633;SDS011;14654;48.898;8.308;2023-12-20T11:30:52;5.43;;;2.80;;
15633;SDS011;14654;48.898;8.308;2023-12-20T11:33:22;3.00;;;2.10;;
15633;SDS011;14654;48.898;8.308;2023-12-20T11:35:49;4.07;;;2.13;;
15633;SDS011;14654;48.898;8.308;2023-12-20T11:38:15;3.47;;;2.07;;
15633;SDS011;14654;48.898;8.308;2023-12-20T11:40:41;4.53;;;1.97;;
15633;SDS011;14654;48.898;8.308;2023-12-20T11:43:08;4.13;;;2.00;;
15633;SDS011;14654;48.898;8.308;2023-12-20T11:45:33;4.60;;;1.97;;
15633;SDS011;14654;48.898;8.308;2023-12-20T11:48:02;4.20;;;2.20;;
15633;SDS011;14654;48.898;8.308;2023-12-20T11:50:28;3.73;;;1.83;;
15633;SDS011;14654;48.898;8.308;2023-12-20T11:52:55;4.83;;;2.20;;
15633;SDS011;14654;48.898;8.308;2023-12-20T11:55:21;5.10;;;2.83;;
15633;SDS011;14654;48.898;8.308;2023-12-20T11:57:48;4.13;;;2.20;;
15633;SDS011;14654;48.898;8.308;2023-12-20T12:00:15;6.07;;;2.37;;
15633;SDS011;14654;48.898;8.308;2023-12-20T12:02:41;5.63;;;2.30;;
15633;SDS011;14654;48.898;8.308;2023-12-20T12:05:06;6.70;;;2.60;;
15633;SDS011;14654;48.898;8.308;2023-12-20T12:07:33;4.40;;;2.33;;
15633;SDS011;14654;48.898;8.308;2023-12-20T12:09:59;3.00;;;2.30;;
15633;SDS011;14654;48.898;8.308;2023-12-20T12:12:24;5.03;;;2.57;;
15633;SDS011;14654;48.898;8.308;2023-12-20T12:14:52;3.53;;;2.20;;
15633;SDS011;14654;48.898;8.308;2023-12-20T12:17:18;6.60;;;2.90;;
15633;SDS011;14654;48.898;8.308;2023-12-20T12:19:43;7.07;;;2.43;;
15633;SDS011;14654;48.898;8.308;2023-12-20T12:24:38;5.97;;;2.50;;
15633;SDS011;14654;48.898;8.308;2023-12-20T12:27:05;4.93;;;2.70;;
15633;SDS011;14654;48.898;8.308;2023-12-20T12:29:32;6.37;;;2.57;;
15633;SDS011;14654;48.898;8.308;2023-12-20T12:31:57;5.13;;;2.37;;
15633;SDS011;14654;48.898;8.308;2023-12-20T12:34:23;4.67;;;2.40;;
15633;SDS011;14654;48.898;8.308;2023-12-20T12:36:48;4.03;;;2.23;;
15633;SDS011;14654;48.898;8.308;2023-12-20T12:39:14;4.97;;;2.37;;
15633;SDS011;14654;48.898;8.308;2023-12-20T12:41:43;3.67;;;2.30;;
15633;SDS011;14654;48.898;8.308;2023-12-20T12:44:08;4.63;;;2.90;;
15633;SDS011;14654;48.898;8.308;2023-12-20T12:46:33;6.50;;;3.13;;
15633;SDS011;14654;48.898;8.308;2023-12-20T12:48:59;5.37;;;3.40;;
15633;SDS011;14654;48.898;8.308;2023-12-20T12:51:24;8.23;;;4.20;;
15633;SDS011;14654;48.898;8.308;2023-12-20T12:53:50;5.27;;;3.10;;
15633;SDS011;14654;48.898;8.308;2023-12-20T12:56:15;7.23;;;2.80;;
15633;SDS011;14654;48.898;8.308;2023-12-20T12:58:41;7.33;;;3.87;;
15633;SDS011;14654;48.898;8.308;2023-12-20T13:01:06;5.10;;;3.40;;
15633;SDS011;14654;48.898;8.308;2023-12-20T13:03:32;6.90;;;4.50;;
15633;SDS011;14654;48.898;8.308;2023-12-20T13:05:59;6.10;;;3.63;;
15633;SDS011;14654;48.898;8.308;2023-12-20T13:08:24;7.30;;;3.27;;
15633;SDS011;14654;48.898;8.308;2023-12-20T13:10:50;4.77;;;3.73;;
15633;SDS011;14654;48.898;8.308;2023-12-20T13:13:16;3.87;;;2.40;;
15633;SDS011;14654;48.898;8.308;2023-12-20T13:15:41;5.83;;;3.37;;
15633;SDS011;14654;48.898;8.308;2023-12-20T13:18:07;6.67;;;2.97;;
15633;SDS011;14654;48.898;8.308;2023-12-20T13:20:32;4.20;;;2.70;;
15633;SDS011;14654;48.898;8.308;2023-12-20T13:22:58;3.60;;;2.37;;
15633;SDS011;14654;48.898;8.308;2023-12-20T13:25:23;6.70;;;3.13;;
15633;SDS011;14654;48.898;8.308;2023-12-20T13:27:49;5.93;;;2.40;;
15633;SDS011;14654;48.898;8.308;2023-12-20T13:30:15;6.50;;;2.70;;
15633;SDS011;14654;48.898;8.308;2023-12-20T13:32:42;6.23;;;2.70;;
15633;SDS011;14654;48.898;8.308;2023-12-20T13:35:07;5.93;;;2.80;;
15633;SDS011;14654;48.898;8.308;2023-12-20T13:37:33;5.07;;;2.80;;
15633;SDS011;14654;48.898;8.308;2023-12-20T13:39:59;4.37;;;2.70;;
15633;SDS011;14654;48.898;8.308;2023-12-20T13:42:24;7.03;;;3.03;;
15633;SDS011;14654;48.898;8.308;2023-12-20T13:44:52;5.73;;;3.47;;
15633;SDS011;14654;48.898;8.308;2023-12-20T13:47:18;6.30;;;2.30;;
15633;SDS011;14654;48.898;8.308;2023-12-20T13:49:44;5.50;;;3.07;;
15633;SDS011;14654;48.898;8.308;2023-12-20T13:52:10;6.67;;;2.80;;
15633;SDS011;14654;48.898;8.308;2023-12-20T13:54:36;4.67;;;2.40;;
15633;SDS011;14654;48.898;8.308;2023-12-20T13:57:01;5.70;;;3.27;;
15633;SDS011;14654;48.898;8.308;2023-12-20T13:59:28;6.50;;;2.70;;
15633;SDS011;14654;48.898;8.308;2023-12-20T14:01:53;4.70;;;2.67;;
15633;SDS011;14654;48.898;8.308;2023-12-20T14:04:18;7.07;;;3.60;;
15633;SDS011;14654;48.898;8.308;2023-12-20T14:06:44;5.13;;;3.30;;
15633;SDS011;14654;48.898;8.308;2023-12-20T14:09:10;4.80;;;2.50;;
15633;SDS011;14654;48.898;8.308;2023-12-20T14:11:37;6.37;;;2.80;;
15633;SDS011;14654;48.898;8.308;2023-12-20T14:14:06;8.00;;;2.80;;
15633;SDS011;14654;48.898;8.308;2023-12-20T14:16:34;5.80;;;2.60;;
15633;SDS011;14654;48.898;8.308;2023-12-20T14:19:00;5.47;;;2.60;;
15633;SDS011;14654;48.898;8.308;2023-12-20T14:21:27;6.00;;;3.00;;
15633;SDS011;14654;48.898;8.308;2023-12-20T14:23:53;5.40;;;3.33;;
15633;SDS011;14654;48.898;8.308;2023-12-20T14:26:18;7.27;;;3.67;;
15633;SDS011;14654;48.898;8.308;2023-12-20T14:28:43;4.53;;;2.47;;
15633;SDS011;14654;48.898;8.308;2023-12-20T14:31:09;6.67;;;2.83;;
15633;SDS011;14654;48.898;8.308;2023-12-20T14:33:35;6.03;;;2.40;;
15633;SDS011;14654;48.898;8.308;2023-12-20T14:36:01;5.87;;;2.63;;
15633;SDS011;14654;48.898;8.308;2023-12-20T14:38:30;4.83;;;2.93;;
15633;SDS011;14654;48.898;8.308;2023-12-20T14:40:55;8.67;;;3.30;;
15633;SDS011;14654;48.898;8.308;2023-12-20T14:43:20;5.17;;;2.80;;
15633;SDS011;14654;48.898;8.308;2023-12-20T14:45:47;4.93;;;2.33;;
15633;SDS011;14654;48.898;8.308;2023-12-20T14:48:12;3.93;;;1.97;;